createdAt,value
2019-03-31T00:01:14.499Z,77.88
2019-03-31T00:03:22.788Z,77.63
2019-03-31T00:05:30.984Z,78.30
2019-03-31T00:07:39.211Z,77.88
2019-03-31T00:09:47.468Z,77.81
2019-03-31T00:11:55.737Z,77.30
2019-03-31T00:14:03.956Z,78.14
2019-03-31T00:16:12.329Z,78.03
2019-03-31T00:18:20.515Z,77.63
2019-03-31T00:20:28.795Z,77.78
2019-03-31T00:22:36.978Z,78.14
2019-03-31T00:24:45.377Z,78.04
2019-03-31T00:26:53.663Z,78.23
2019-03-31T00:29:01.862Z,77.90
2019-03-31T00:31:21.417Z,78.00
2019-03-31T00:33:20.180Z,78.14
2019-03-31T00:35:28.394Z,78.06
2019-03-31T00:37:36.679Z,77.77
2019-03-31T00:39:44.982Z,78.18
2019-03-31T00:41:53.155Z,78.10
2019-03-31T00:44:01.326Z,78.22
2019-03-31T00:46:09.560Z,78.34
2019-03-31T00:48:17.823Z,78.04
2019-03-31T00:50:26.078Z,77.87
2019-03-31T00:52:34.278Z,78.34
2019-03-31T00:54:42.510Z,78.40
2019-03-31T00:56:50.765Z,78.44
2019-03-31T00:58:59.020Z,78.05
2019-03-31T01:01:36.256Z,78.51
2019-03-31T01:03:39.147Z,78.95
2019-03-31T01:05:47.821Z,79.10
2019-03-31T01:07:56.756Z,79.00
2019-03-31T01:10:06.143Z,79.05
2019-03-31T01:12:14.826Z,78.69
2019-03-31T01:14:23.627Z,78.55
2019-03-31T01:16:34.008Z,78.10
2019-03-31T01:18:42.332Z,78.10
2019-03-31T01:20:50.878Z,77.92
2019-03-31T01:22:59.027Z,77.97
2019-03-31T01:25:08.452Z,78.39
2019-03-31T01:27:18.785Z,77.28
2019-03-31T01:29:26.986Z,78.54
2019-03-31T01:31:49.241Z,78.03
2019-03-31T01:33:45.353Z,78.27
2019-03-31T01:35:53.704Z,78.86
2019-03-31T01:38:01.961Z,78.91
2019-03-31T01:40:10.404Z,78.60
2019-03-31T01:42:18.558Z,78.54
2019-03-31T01:44:26.941Z,78.77
2019-03-31T01:46:35.143Z,78.73
2019-03-31T01:48:43.367Z,78.89
2019-03-31T01:50:51.543Z,78.06
2019-03-31T01:52:59.792Z,78.06
2019-03-31T01:55:08.949Z,77.79
2019-03-31T01:57:17.166Z,78.46
2019-03-31T01:59:25.387Z,79.07
2019-03-31T02:01:33.718Z,78.41
2019-03-31T02:03:41.932Z,77.83
2019-03-31T02:05:50.276Z,78.03
2019-03-31T02:07:58.481Z,78.48
2019-03-31T02:10:07.840Z,78.30
2019-03-31T02:12:16.032Z,78.37
2019-03-31T02:14:24.259Z,78.62
2019-03-31T02:16:32.457Z,78.56
2019-03-31T02:18:40.660Z,79.17
2019-03-31T02:20:48.864Z,79.66
2019-03-31T02:22:57.309Z,79.14
2019-03-31T02:25:05.891Z,78.69
2019-03-31T02:27:14.083Z,78.70
2019-03-31T02:29:22.339Z,79.11
2019-03-31T02:31:30.564Z,78.15
2019-03-31T02:33:38.764Z,77.25
2019-03-31T02:35:47.111Z,78.41
2019-03-31T02:37:55.292Z,78.28
2019-03-31T02:40:03.496Z,78.63
2019-03-31T02:42:11.701Z,79.00
2019-03-31T02:44:19.875Z,78.79
2019-03-31T02:46:28.188Z,78.78
2019-03-31T02:48:36.400Z,79.02
2019-03-31T02:50:52.411Z,79.28
2019-03-31T02:53:00.932Z,79.49
2019-03-31T02:55:09.291Z,79.04
2019-03-31T02:57:19.686Z,78.76
2019-03-31T02:59:29.601Z,79.05
2019-03-31T03:01:39.002Z,79.08
2019-03-31T03:03:50.153Z,79.22
2019-03-31T03:06:01.806Z,79.37
2019-03-31T03:08:11.460Z,79.51
2019-03-31T03:10:21.024Z,79.45
2019-03-31T03:12:33.600Z,79.76
2019-03-31T03:14:43.555Z,79.77
2019-03-31T03:16:51.853Z,80.28
2019-03-31T03:19:00.368Z,79.96
2019-03-31T03:21:08.563Z,79.80
2019-03-31T03:23:16.744Z,79.79
2019-03-31T03:25:24.953Z,80.03
2019-03-31T03:27:33.146Z,79.33
2019-03-31T03:29:41.400Z,79.18
2019-03-31T03:31:49.674Z,79.34
2019-03-31T03:33:58.759Z,79.59
2019-03-31T03:36:06.946Z,79.63
2019-03-31T03:38:15.119Z,79.95
2019-03-31T03:40:23.303Z,79.73
2019-03-31T03:42:31.500Z,79.68
2019-03-31T03:44:39.683Z,79.46
2019-03-31T03:46:47.843Z,79.55
2019-03-31T03:48:56.129Z,79.48
2019-03-31T03:51:04.265Z,79.09
2019-03-31T03:53:12.415Z,79.65
2019-03-31T03:55:20.644Z,79.62
2019-03-31T03:57:28.842Z,79.31
2019-03-31T03:59:37.060Z,78.71
2019-03-31T04:01:45.570Z,79.46
2019-03-31T04:03:53.779Z,79.77
2019-03-31T04:06:01.985Z,79.71
2019-03-31T04:08:10.210Z,79.99
2019-03-31T04:11:21.241Z,79.80
2019-03-31T04:13:27.157Z,79.82
2019-03-31T04:15:35.335Z,79.81
2019-03-31T04:17:43.501Z,79.49
2019-03-31T04:19:51.714Z,80.21
2019-03-31T04:21:59.886Z,78.74
2019-03-31T04:24:08.083Z,79.74
2019-03-31T04:26:16.388Z,79.23
2019-03-31T04:28:24.563Z,79.27
2019-03-31T04:30:32.730Z,80.37
2019-03-31T04:32:40.905Z,80.54
2019-03-31T04:34:49.079Z,79.61
2019-03-31T04:36:57.258Z,79.85
2019-03-31T04:39:07.250Z,80.00
2019-03-31T04:41:15.561Z,80.09
2019-03-31T04:43:23.843Z,80.42
2019-03-31T04:45:32.166Z,80.78
2019-03-31T04:47:40.585Z,80.54
2019-03-31T04:49:48.825Z,79.63
2019-03-31T04:51:56.995Z,80.63
2019-03-31T04:54:05.304Z,79.71
2019-03-31T04:56:13.447Z,79.75
2019-03-31T04:58:21.626Z,78.80
2019-03-31T05:00:29.821Z,79.75
2019-03-31T05:02:37.961Z,80.24
2019-03-31T05:04:46.191Z,80.75
2019-03-31T05:06:54.383Z,81.13
2019-03-31T05:09:02.630Z,81.13
2019-03-31T05:11:10.819Z,81.92
2019-03-31T05:13:19.011Z,82.64
2019-03-31T05:15:27.270Z,81.18
2019-03-31T05:17:36.019Z,80.94
2019-03-31T05:19:44.398Z,78.74
2019-03-31T05:21:52.676Z,78.97
2019-03-31T05:24:00.834Z,80.78
2019-03-31T05:26:09.059Z,78.87
2019-03-31T05:28:17.201Z,80.21
2019-03-31T05:30:25.438Z,79.20
2019-03-31T05:32:33.640Z,78.00
2019-03-31T05:34:41.892Z,74.55
2019-03-31T05:36:50.213Z,75.10
2019-03-31T05:38:58.427Z,75.07
2019-03-31T05:41:06.629Z,76.71
2019-03-31T05:43:14.886Z,77.68
2019-03-31T05:45:23.086Z,77.73
2019-03-31T05:47:31.260Z,76.55
2019-03-31T05:49:39.396Z,77.26
2019-03-31T05:51:47.631Z,76.84
2019-03-31T05:53:55.896Z,75.90
2019-03-31T05:56:04.580Z,75.95
2019-03-31T05:58:12.773Z,76.89
2019-03-31T06:00:54.696Z,76.29
2019-03-31T06:03:02.919Z,75.64
2019-03-31T06:05:11.249Z,74.91
2019-03-31T06:07:19.463Z,74.73
2019-03-31T06:09:27.678Z,74.02
2019-03-31T06:11:35.836Z,73.38
2019-03-31T06:13:44.158Z,74.16
2019-03-31T06:15:52.368Z,73.20
2019-03-31T06:18:00.572Z,73.29
2019-03-31T06:20:09.235Z,73.69
2019-03-31T06:22:17.527Z,73.93
2019-03-31T06:24:25.760Z,72.35
2019-03-31T06:26:34.041Z,72.72
2019-03-31T06:28:42.241Z,71.69
2019-03-31T06:30:50.597Z,71.16
2019-03-31T06:32:58.933Z,71.24
2019-03-31T06:35:07.914Z,70.69
2019-03-31T06:37:16.222Z,69.64
2019-03-31T06:39:24.454Z,68.68
2019-03-31T06:41:32.765Z,68.83
2019-03-31T06:43:40.931Z,67.43
2019-03-31T06:45:49.212Z,67.22
2019-03-31T06:47:58.030Z,66.32
2019-03-31T06:50:07.251Z,65.30
2019-03-31T06:52:15.596Z,65.36
2019-03-31T06:54:23.885Z,64.76
2019-03-31T06:56:32.243Z,64.60
2019-03-31T06:58:40.431Z,64.29
2019-03-31T07:00:48.739Z,64.23
2019-03-31T07:02:57.038Z,64.55
2019-03-31T07:05:05.961Z,65.10
2019-03-31T07:07:14.181Z,64.19
2019-03-31T07:09:22.422Z,64.02
2019-03-31T07:11:30.909Z,61.98
2019-03-31T07:13:39.211Z,61.14
2019-03-31T07:15:47.553Z,61.50
2019-03-31T07:17:55.777Z,61.39
2019-03-31T07:20:03.989Z,61.53
2019-03-31T07:22:12.257Z,61.13
2019-03-31T07:24:20.466Z,60.14
2019-03-31T07:26:28.924Z,59.99
2019-03-31T07:28:37.210Z,59.09
2019-03-31T07:30:45.488Z,58.93
2019-03-31T07:32:53.797Z,59.35
2019-03-31T07:35:02.065Z,59.22
2019-03-31T07:37:10.449Z,57.31
2019-03-31T07:39:18.960Z,56.51
2019-03-31T07:41:27.566Z,57.01
2019-03-31T07:43:35.922Z,56.75
2019-03-31T07:45:44.171Z,57.52
2019-03-31T07:47:52.551Z,55.92
2019-03-31T07:50:00.973Z,57.08
2019-03-31T07:52:09.308Z,57.40
2019-03-31T07:54:17.518Z,54.99
2019-03-31T07:56:25.843Z,54.45
2019-03-31T07:58:34.318Z,54.78
2019-03-31T08:00:42.721Z,53.85
2019-03-31T08:02:51.352Z,53.03
2019-03-31T08:04:59.642Z,53.20
2019-03-31T08:07:07.821Z,52.89
2019-03-31T08:09:16.213Z,52.80
2019-03-31T08:11:24.550Z,53.55
2019-03-31T08:13:32.812Z,54.03
2019-03-31T08:15:41.076Z,54.51
2019-03-31T08:17:49.509Z,52.88
2019-03-31T08:19:57.753Z,52.92
2019-03-31T08:22:06.454Z,52.64
2019-03-31T08:24:14.885Z,53.01
2019-03-31T08:26:23.288Z,52.15
2019-03-31T08:28:31.662Z,53.07
2019-03-31T08:30:40.141Z,53.00
2019-03-31T08:32:48.459Z,52.06
2019-03-31T08:34:56.922Z,52.17
2019-03-31T08:37:05.385Z,52.78
2019-03-31T08:39:13.733Z,52.33
2019-03-31T08:41:22.014Z,51.60
2019-03-31T08:43:30.288Z,50.90
2019-03-31T08:45:38.656Z,51.20
2019-03-31T08:47:46.942Z,51.00
2019-03-31T08:49:55.332Z,51.49
2019-03-31T08:52:03.815Z,51.30
2019-03-31T08:54:12.268Z,51.56
2019-03-31T08:56:20.727Z,50.76
2019-03-31T08:58:29.603Z,50.43
2019-03-31T09:00:49.013Z,50.33
2019-03-31T09:02:57.636Z,51.77
2019-03-31T09:05:07.766Z,52.41
2019-03-31T09:07:16.082Z,52.40
2019-03-31T09:09:24.571Z,51.99
2019-03-31T09:11:32.981Z,51.71
2019-03-31T09:13:41.446Z,51.95
2019-03-31T09:15:49.847Z,52.18
2019-03-31T09:17:59.903Z,50.58
2019-03-31T09:20:09.508Z,51.19
2019-03-31T09:22:17.995Z,51.64
2019-03-31T09:24:26.532Z,51.74
2019-03-31T09:26:34.995Z,51.79
2019-03-31T09:28:43.417Z,50.61
2019-03-31T09:30:51.831Z,49.71
2019-03-31T09:33:00.477Z,50.76
2019-03-31T09:35:11.348Z,50.71
2019-03-31T09:37:19.937Z,50.15
2019-03-31T09:39:28.587Z,50.14
2019-03-31T09:41:37.032Z,50.70
2019-03-31T09:43:45.491Z,50.55
2019-03-31T09:45:53.949Z,50.41
2019-03-31T09:48:02.385Z,50.20
2019-03-31T09:50:16.995Z,50.49
2019-03-31T09:52:23.661Z,50.98
2019-03-31T09:54:32.006Z,50.38
2019-03-31T09:56:40.493Z,51.01
2019-03-31T09:58:48.945Z,49.62
2019-03-31T10:00:57.590Z,50.71
2019-03-31T10:03:05.909Z,50.66
2019-03-31T10:05:14.937Z,51.03
2019-03-31T10:07:23.950Z,50.74
2019-03-31T10:09:32.460Z,50.22
2019-03-31T10:11:40.705Z,50.49
2019-03-31T10:13:48.941Z,49.91
2019-03-31T10:15:57.174Z,49.53
2019-03-31T10:18:05.603Z,49.60
2019-03-31T10:20:14.099Z,49.80
2019-03-31T10:22:22.668Z,49.85
2019-03-31T10:24:31.557Z,49.25
2019-03-31T10:26:39.927Z,50.07
2019-03-31T10:28:48.317Z,49.89
2019-03-31T10:30:56.856Z,49.87
2019-03-31T10:33:05.710Z,49.56
2019-03-31T10:35:14.379Z,47.72
2019-03-31T10:37:22.717Z,47.98
2019-03-31T10:39:30.985Z,48.35
2019-03-31T10:41:39.667Z,48.19
2019-03-31T10:43:47.963Z,48.18
2019-03-31T10:45:56.247Z,48.48
2019-03-31T10:48:19.286Z,49.09
2019-03-31T10:50:15.327Z,48.21
2019-03-31T10:52:24.118Z,48.34
2019-03-31T10:54:32.674Z,48.98
2019-03-31T10:56:41.168Z,49.44
2019-03-31T10:58:49.608Z,47.88
2019-03-31T11:00:57.951Z,48.27
2019-03-31T11:03:09.046Z,47.99
2019-03-31T11:05:18.259Z,47.77
2019-03-31T11:07:26.745Z,47.66
2019-03-31T11:09:35.252Z,48.39
2019-03-31T11:11:43.488Z,47.67
2019-03-31T11:13:52.972Z,48.13
2019-03-31T11:16:01.357Z,48.22
2019-03-31T11:18:09.862Z,48.91
2019-03-31T11:20:18.319Z,48.55
2019-03-31T11:22:37.294Z,48.10
2019-03-31T11:24:46.012Z,47.76
2019-03-31T11:26:54.884Z,48.42
2019-03-31T11:29:04.585Z,46.66
2019-03-31T11:31:13.153Z,47.77
2019-03-31T11:33:21.910Z,47.32
2019-03-31T11:35:30.443Z,46.90
2019-03-31T11:37:39.378Z,47.14
2019-03-31T11:39:48.242Z,47.46
2019-03-31T11:41:56.716Z,47.65
2019-03-31T11:44:05.641Z,48.01
2019-03-31T11:46:14.229Z,47.56
2019-03-31T11:48:23.325Z,48.02
2019-03-31T11:50:31.861Z,47.78
2019-03-31T11:52:40.263Z,48.25
2019-03-31T11:54:49.165Z,47.06
2019-03-31T11:56:57.576Z,47.23
2019-03-31T11:59:06.409Z,47.23
2019-03-31T12:01:14.946Z,46.51
2019-03-31T12:03:23.612Z,46.50
2019-03-31T12:05:32.437Z,47.29
2019-03-31T12:07:47.105Z,48.05
2019-03-31T12:09:51.275Z,47.91
2019-03-31T12:11:59.845Z,46.21
2019-03-31T12:14:08.950Z,47.72
2019-03-31T12:16:17.934Z,47.39
2019-03-31T12:18:26.869Z,47.54
2019-03-31T12:20:35.442Z,47.53
2019-03-31T12:22:43.877Z,47.30
2019-03-31T12:24:52.162Z,47.38
2019-03-31T12:27:00.576Z,47.41
2019-03-31T12:29:08.858Z,46.86
2019-03-31T12:31:18.432Z,46.69
2019-03-31T12:33:26.792Z,46.42
2019-03-31T12:35:35.041Z,45.71
2019-03-31T12:37:43.642Z,46.30
2019-03-31T12:39:52.535Z,46.38
2019-03-31T12:42:00.848Z,46.15
2019-03-31T12:44:09.129Z,46.43
2019-03-31T12:46:17.541Z,46.07
2019-03-31T12:48:25.915Z,44.85
2019-03-31T12:50:34.293Z,45.89
2019-03-31T12:52:47.504Z,46.63
2019-03-31T12:54:52.664Z,46.50
2019-03-31T12:57:01.377Z,46.46
2019-03-31T12:59:10.063Z,48.05
2019-03-31T13:01:18.422Z,48.41
2019-03-31T13:03:26.843Z,47.51
2019-03-31T13:05:35.185Z,47.74
2019-03-31T13:07:55.676Z,45.87
2019-03-31T13:09:54.105Z,45.73
2019-03-31T13:12:02.451Z,46.59
2019-03-31T13:14:10.663Z,46.35
2019-03-31T13:16:18.929Z,46.64
2019-03-31T13:18:28.191Z,47.01
2019-03-31T13:20:36.697Z,47.33
2019-03-31T13:22:45.962Z,47.49
2019-03-31T13:24:54.516Z,47.31
2019-03-31T13:27:03.106Z,47.00
2019-03-31T13:29:11.411Z,45.98
2019-03-31T13:31:19.816Z,46.81
2019-03-31T13:33:28.107Z,46.58
2019-03-31T13:35:36.396Z,45.94
2019-03-31T13:37:45.078Z,46.20
2019-03-31T13:39:53.441Z,46.45
2019-03-31T13:42:01.843Z,46.23
2019-03-31T13:44:10.031Z,46.86
2019-03-31T13:46:18.234Z,46.87
2019-03-31T13:48:26.414Z,46.96
2019-03-31T13:50:34.651Z,46.43
2019-03-31T13:52:43.008Z,47.62
2019-03-31T13:54:51.261Z,47.64
2019-03-31T13:56:59.680Z,48.13
2019-03-31T13:59:09.229Z,48.85
2019-03-31T14:01:17.802Z,48.62
2019-03-31T14:03:26.089Z,48.83
2019-03-31T14:05:34.434Z,49.64
2019-03-31T14:07:42.761Z,48.46
2019-03-31T14:09:51.089Z,48.96
2019-03-31T14:12:00.106Z,49.62
2019-03-31T14:14:08.443Z,49.93
2019-03-31T14:16:16.733Z,49.41
2019-03-31T14:18:25.001Z,49.77
2019-03-31T14:20:33.390Z,50.08
2019-03-31T14:22:41.859Z,50.18
2019-03-31T14:24:50.335Z,50.26
2019-03-31T14:26:58.659Z,50.62
2019-03-31T14:29:07.082Z,50.50
2019-03-31T14:31:15.388Z,50.83
2019-03-31T14:33:23.808Z,50.22
2019-03-31T14:35:32.314Z,50.92
2019-03-31T14:37:40.624Z,50.35
2019-03-31T14:39:48.878Z,50.49
2019-03-31T14:41:57.326Z,50.63
2019-03-31T14:44:06.103Z,50.42
2019-03-31T14:46:14.434Z,50.40
2019-03-31T14:48:22.657Z,50.12
2019-03-31T14:50:36.880Z,50.13
2019-03-31T14:52:46.079Z,50.71
2019-03-31T14:54:55.992Z,50.12
2019-03-31T14:57:06.041Z,49.46
2019-03-31T14:59:15.203Z,50.55
2019-03-31T15:01:25.237Z,49.96
2019-03-31T15:03:37.482Z,50.19
2019-03-31T15:05:47.064Z,50.96
2019-03-31T15:07:58.539Z,50.42
2019-03-31T15:10:06.758Z,51.05
2019-03-31T15:12:15.060Z,50.93
2019-03-31T15:14:23.394Z,50.98
2019-03-31T15:16:31.917Z,51.73
2019-03-31T15:18:40.401Z,50.76
2019-03-31T15:20:48.997Z,51.25
2019-03-31T15:23:02.634Z,49.90
2019-03-31T15:25:11.442Z,51.09
2019-03-31T15:27:19.837Z,50.18
2019-03-31T15:29:29.098Z,48.72
2019-03-31T15:31:37.538Z,49.05
2019-03-31T15:33:46.292Z,47.83
2019-03-31T15:35:54.608Z,48.08
2019-03-31T15:38:03.780Z,49.43
2019-03-31T15:40:12.349Z,48.77
2019-03-31T15:42:20.975Z,47.89
2019-03-31T15:44:30.276Z,49.35
2019-03-31T15:46:38.622Z,48.35
2019-03-31T15:48:47.356Z,48.16
2019-03-31T15:50:55.956Z,48.76
2019-03-31T15:53:04.530Z,48.81
2019-03-31T15:55:14.111Z,47.88
2019-03-31T15:57:22.611Z,48.75
2019-03-31T15:59:30.991Z,49.15
2019-03-31T16:01:39.262Z,48.85
2019-03-31T16:03:47.553Z,47.79
2019-03-31T16:05:55.774Z,47.97
2019-03-31T16:08:03.573Z,47.75
2019-03-31T16:10:11.443Z,49.54
2019-03-31T16:12:18.888Z,49.13
2019-03-31T16:14:27.089Z,48.61
2019-03-31T16:16:34.522Z,49.17
2019-03-31T16:18:41.971Z,49.30
2019-03-31T16:20:49.390Z,48.82
2019-03-31T16:22:57.848Z,48.58
2019-03-31T16:25:09.986Z,49.12
2019-03-31T16:27:17.761Z,48.78
2019-03-31T16:29:25.582Z,48.09
2019-03-31T16:31:33.237Z,48.89
2019-03-31T16:33:40.795Z,48.68
2019-03-31T16:35:48.394Z,49.32
2019-03-31T16:37:56.252Z,48.85
2019-03-31T16:40:03.953Z,48.35
2019-03-31T16:42:11.821Z,49.25
2019-03-31T16:44:19.573Z,48.94
2019-03-31T16:46:27.130Z,49.31
2019-03-31T16:48:34.841Z,48.27
2019-03-31T16:50:42.572Z,48.59
2019-03-31T16:52:52.653Z,47.44
2019-03-31T16:55:00.091Z,48.26
2019-03-31T16:57:07.624Z,48.12
2019-03-31T16:59:15.270Z,47.82
2019-03-31T17:01:22.911Z,48.37
2019-03-31T17:03:30.847Z,48.37
2019-03-31T17:05:38.395Z,49.55
2019-03-31T17:07:46.340Z,49.11
2019-03-31T17:09:53.923Z,48.75
2019-03-31T17:12:02.113Z,48.11
2019-03-31T17:14:09.583Z,49.20
2019-03-31T17:16:17.435Z,49.32
2019-03-31T17:18:25.181Z,49.12
2019-03-31T17:20:32.855Z,49.64
2019-03-31T17:22:40.748Z,50.35
2019-03-31T17:24:48.610Z,49.83
2019-03-31T17:26:56.223Z,49.17
2019-03-31T17:29:04.298Z,49.83
2019-03-31T17:31:11.906Z,51.58
2019-03-31T17:33:19.584Z,50.76
2019-03-31T17:35:27.760Z,50.81
2019-03-31T17:37:35.747Z,50.01
2019-03-31T17:39:43.511Z,51.95
2019-03-31T17:41:51.461Z,50.75
2019-03-31T17:43:59.402Z,50.54
2019-03-31T17:46:07.280Z,50.58
2019-03-31T17:48:14.939Z,49.71
2019-03-31T17:50:22.502Z,49.39
2019-03-31T17:52:30.220Z,49.40
2019-03-31T17:54:38.020Z,48.64
2019-03-31T17:56:46.393Z,49.34
2019-03-31T17:58:54.470Z,51.62
2019-03-31T18:01:02.083Z,50.40
2019-03-31T18:03:09.707Z,49.35
2019-03-31T18:05:17.901Z,50.80
2019-03-31T18:07:25.591Z,50.18
2019-03-31T18:09:33.199Z,49.91
2019-03-31T18:11:40.876Z,49.20
2019-03-31T18:13:48.439Z,50.84
2019-03-31T18:15:56.119Z,51.04
2019-03-31T18:18:03.630Z,49.97
2019-03-31T18:20:11.756Z,50.62
2019-03-31T18:22:19.501Z,50.04
2019-03-31T18:24:27.288Z,50.85
2019-03-31T18:26:34.964Z,50.31
2019-03-31T18:28:43.840Z,49.61
2019-03-31T18:30:52.114Z,49.22
2019-03-31T18:32:59.754Z,50.98
2019-03-31T18:35:08.360Z,51.61
2019-03-31T18:37:16.679Z,47.95
2019-03-31T18:39:24.355Z,48.39
2019-03-31T18:41:32.218Z,49.15
2019-03-31T18:43:50.658Z,48.30
2019-03-31T18:45:48.995Z,49.15
2019-03-31T18:47:56.495Z,48.94
2019-03-31T18:50:04.149Z,49.75
2019-03-31T18:52:11.753Z,49.03
2019-03-31T18:54:40.848Z,48.28
2019-03-31T18:57:03.029Z,48.48
2019-03-31T18:59:27.964Z,49.54
2019-03-31T19:01:42.531Z,49.06
2019-03-31T19:04:07.877Z,48.90
2019-03-31T19:06:33.009Z,49.15
2019-03-31T19:09:05.782Z,48.87
2019-03-31T19:11:35.138Z,49.33
2019-03-31T19:14:01.556Z,48.35
2019-03-31T19:16:22.127Z,49.28
2019-03-31T19:18:40.644Z,48.85
2019-03-31T19:21:10.875Z,47.49
2019-03-31T19:23:36.516Z,49.06
2019-03-31T19:26:15.239Z,49.46
2019-03-31T19:28:36.096Z,49.27
2019-03-31T19:31:05.469Z,48.68
2019-03-31T19:33:30.727Z,50.12
2019-03-31T19:35:47.053Z,49.80
2019-03-31T19:38:13.989Z,48.82
2019-03-31T19:40:33.009Z,48.36
2019-03-31T19:43:14.753Z,50.08
2019-03-31T19:45:37.931Z,49.20
2019-03-31T19:47:51.110Z,49.59
2019-03-31T19:50:09.180Z,47.19
2019-03-31T19:52:38.459Z,46.58
2019-03-31T19:55:04.706Z,47.13
2019-03-31T19:57:40.220Z,45.88
2019-03-31T20:00:04.042Z,47.73
2019-03-31T20:02:29.216Z,47.42
2019-03-31T20:05:14.022Z,46.79
2019-03-31T20:07:29.003Z,44.33
2019-03-31T20:09:55.251Z,42.95
2019-03-31T20:12:27.732Z,44.13
2019-03-31T20:14:54.787Z,43.59
2019-03-31T20:17:12.024Z,44.30
2019-03-31T20:19:38.215Z,45.36
2019-03-31T20:21:54.032Z,45.33
2019-03-31T20:24:19.116Z,45.38
2019-03-31T20:26:45.200Z,45.63
2019-03-31T20:29:10.686Z,46.67
2019-03-31T20:31:31.599Z,47.23
2019-03-31T20:34:01.160Z,47.73
2019-03-31T20:36:26.347Z,47.06
2019-03-31T20:39:03.160Z,46.93
2019-03-31T20:41:47.786Z,46.24
2019-03-31T20:43:54.186Z,47.15
2019-03-31T20:46:04.326Z,46.40
2019-03-31T20:48:11.717Z,47.25
2019-03-31T20:50:19.534Z,47.59
2019-03-31T20:52:28.263Z,48.56
2019-03-31T20:54:36.401Z,47.41
2019-03-31T20:56:44.149Z,46.90
2019-03-31T20:58:52.241Z,47.67
2019-03-31T21:00:59.855Z,46.56
2019-03-31T21:03:07.653Z,46.40
2019-03-31T21:05:15.315Z,47.20
2019-03-31T21:07:22.839Z,48.48
2019-03-31T21:09:44.293Z,47.85
2019-03-31T21:11:40.099Z,47.95
2019-03-31T21:13:47.609Z,47.49
2019-03-31T21:15:55.262Z,48.31
2019-03-31T21:18:02.824Z,47.92
2019-03-31T21:20:11.010Z,47.26
2019-03-31T21:22:18.581Z,48.63
2019-03-31T21:24:26.025Z,48.02
2019-03-31T21:26:33.529Z,47.99
2019-03-31T21:28:41.023Z,48.87
2019-03-31T21:30:48.596Z,48.43
2019-03-31T21:32:56.197Z,48.64
2019-03-31T21:35:03.672Z,48.22
2019-03-31T21:37:11.424Z,48.89
2019-03-31T21:39:19.615Z,47.71
2019-03-31T21:41:27.189Z,47.80
2019-03-31T21:43:34.606Z,49.29
2019-03-31T21:45:42.070Z,49.20
2019-03-31T21:47:49.497Z,50.31
2019-03-31T21:49:56.914Z,48.84
2019-03-31T21:52:04.324Z,49.60
2019-03-31T21:54:11.875Z,49.07
2019-03-31T21:56:19.372Z,49.51
2019-03-31T21:58:26.965Z,48.55
2019-03-31T22:00:49.187Z,49.92
2019-03-31T22:02:56.680Z,50.67
2019-03-31T22:05:04.315Z,50.18
2019-03-31T22:07:11.962Z,51.42
2019-03-31T22:09:19.694Z,51.80
2019-03-31T22:11:27.341Z,52.56
2019-03-31T22:13:34.877Z,52.59
2019-03-31T22:15:42.281Z,52.84
2019-03-31T22:17:49.945Z,52.86
2019-03-31T22:19:57.393Z,53.33
2019-03-31T22:22:04.889Z,53.74
2019-03-31T22:24:12.343Z,54.17
2019-03-31T22:26:20.132Z,54.34
2019-03-31T22:28:27.734Z,54.67
2019-03-31T22:30:37.956Z,55.23
2019-03-31T22:32:45.577Z,55.60
2019-03-31T22:34:53.057Z,56.13
2019-03-31T22:37:00.444Z,56.28
2019-03-31T22:39:09.091Z,56.52
2019-03-31T22:41:16.482Z,56.72
2019-03-31T22:43:23.910Z,57.02
2019-03-31T22:45:31.314Z,57.48
2019-03-31T22:47:38.800Z,57.29
2019-03-31T22:49:46.199Z,57.29
2019-03-31T22:51:56.410Z,58.07
2019-03-31T22:54:02.798Z,58.54
2019-03-31T22:56:12.709Z,59.12
2019-03-31T22:58:20.051Z,59.13
2019-03-31T23:00:28.872Z,59.33
2019-03-31T23:02:36.318Z,59.51
2019-03-31T23:04:43.715Z,59.65
2019-03-31T23:06:51.184Z,59.70
2019-03-31T23:08:58.611Z,59.69
2019-03-31T23:11:06.378Z,60.32
2019-03-31T23:13:13.738Z,60.58
2019-03-31T23:15:21.227Z,60.35
2019-03-31T23:17:28.618Z,60.53
2019-03-31T23:19:35.979Z,60.75
2019-03-31T23:21:43.325Z,61.17
2019-03-31T23:23:50.720Z,60.89
2019-03-31T23:25:58.058Z,60.77
2019-03-31T23:28:05.452Z,61.17
2019-03-31T23:30:13.613Z,61.23
2019-03-31T23:32:20.987Z,61.54
2019-03-31T23:34:28.401Z,61.09
2019-03-31T23:36:35.832Z,60.82
2019-03-31T23:38:43.250Z,61.35
2019-03-31T23:40:50.706Z,61.52
2019-03-31T23:42:58.085Z,61.50
2019-03-31T23:45:06.077Z,61.67
2019-03-31T23:47:13.518Z,62.32
2019-03-31T23:49:20.904Z,62.25
2019-03-31T23:51:28.250Z,62.56
2019-03-31T23:53:35.638Z,62.85
2019-03-31T23:55:43.028Z,62.70
2019-03-31T23:57:50.404Z,62.66
2019-03-31T23:59:57.800Z,62.97
